Detall de PIREP

Printer-friendly versionPDF version

[2009/12/10 21:10:00]
Flight IATA:CT3125
Pilot Number:011
Company ICAO:CAT
Aircraft Type:F50/A
PAX:50
Departing Airport: LEVC
Destination Airport: LFMP
Alternate Airport:LFBO
Online: VATSIM
Route:SOPET B28 BCN R870 DALIN A67 BGR A27 KANIG
Flight Level:FL240
No Slew and time accel
No pause
Crash detect
Detect pilot in Cockpit between each 30 and 45 minutes
21:10 Zero fuel Weight: 42186 Lbs, Fuel Weight: 2541 Lbs
21:10 VATSIM:LEVC 102100Z 28004KT CAVOK 08/07 Q1026 NOSIG
21:10 VATSIM:LFMP 102100Z AUTO VRB03KT 9999NDV NSC 12/07 Q1024
21:13 Parking Brakes off
21:20 Take-off
21:20 Take off Weight: 44659 Lbs
21:20 Wind: 283 @ 004 Knots Heading: 113
21:20 POS N39 29 25 W000 29 04
21:20 Gear Up: 125 Knots
21:20 Flaps:3 at 125 Knots
21:21 Flaps:2 at 142 Knots
21:21 Flaps:1 at 152 Knots
21:21 Flaps:0 at 158 Knots
21:35 Wind:289@009 Knots Heading: 042 Ground Sp
eed: 248 Knots Altitude 16643 ft
21:44 TOC
21:44 Fuel Weight: 1841 Lb
21:50 Wind:007@013 Knots Heading: 044 Ground Speed: 269 Knots Altitude 24320 ft
22:05 Wind:320@021 Knots Heading: 061 Ground Speed: 268 Knots Altitude 24317 ft
22:08 TOD
22:08 Fuel Weight: 1254 Lb
22:20 Wind:317@007 Knots Heading: 331 Ground Speed: 220 Knots Altitude 11794 ft
22:33 Flaps:1 at 187 Knots
22:33 Flaps:2 at 174 Knots
22:34 Flaps:3 at 162 Knots
22:34 Gear Down: 152 Knots
22:34 Flaps:4 at 128 Knots
22:34 Flaps:5 at 106 Knots
22:35 Wind:212@003 Knots Heading: 325 Ground Speed: 105 Knots Altitude 695 ft
22:35 Flaps:6 at 102 Knots
22:36 TouchDown:Rate -376 ft/min Speed: 95 Knots
22:36 VATSIM:LFMP 102200Z AUTO 21003KT 170V230 9999NDV NSC 12/07 Q1024
22:36 Land
22:36 Wind:218@003 Knots
22:36 Heading: 327
22:36 Flight Duration: 01:16
22:36 Landing Weight: 43115 Lbs
22:36
POS N42 44 34 E002 52 16
22:41 Parking brakes on
22:41 Block to Block Duration: 01:28
22:41 Final Fuel: 888 Lbls
22:41 Spent Fuel: 1653 Lbls
22:41 Flight Length: 169 NM
22:41 TOD Land Length: 101 NM

Exportar CSV

Powered by Drupal - Modified by Danger4k